sensor_id;sensor_type;location;lat;lon;timestamp;temperature;humidity
5222;DHT22;2630;52.036;8.514;2023-02-15T00:01:11;1.40;99.90
5222;DHT22;2630;52.036;8.514;2023-02-15T00:03:37;1.60;99.90
5222;DHT22;2630;52.036;8.514;2023-02-15T00:06:04;1.80;99.90
5222;DHT22;2630;52.036;8.514;2023-02-15T00:08:30;2.00;99.90
5222;DHT22;2630;52.036;8.514;2023-02-15T00:16:02;2.30;99.90
5222;DHT22;2630;52.036;8.514;2023-02-15T00:20:53;2.30;99.90
5222;DHT22;2630;52.036;8.514;2023-02-15T00:25:45;2.30;99.90
5222;DHT22;2630;52.036;8.514;2023-02-15T00:35:28;1.90;99.90
5222;DHT22;2630;52.036;8.514;2023-02-15T00:37:56;1.90;99.90
5222;DHT22;2630;52.036;8.514;2023-02-15T00:40:21;1.80;99.90
5222;DHT22;2630;52.036;8.514;2023-02-15T00:42:47;1.70;99.90
5222;DHT22;2630;52.036;8.514;2023-02-15T00:45:13;1.70;99.90
5222;DHT22;2630;52.036;8.514;2023-02-15T00:50:05;1.60;99.90
5222;DHT22;2630;52.036;8.514;2023-02-15T00:54:57;1.50;99.90
5222;DHT22;2630;52.036;8.514;2023-02-15T00:57:22;1.50;99.90
5222;DHT22;2630;52.036;8.514;2023-02-15T01:02:14;1.40;99.90
5222;DHT22;2630;52.036;8.514;2023-02-15T01:09:32;1.20;99.90
5222;DHT22;2630;52.036;8.514;2023-02-15T01:14:24;1.10;99.90
5222;DHT22;2630;52.036;8.514;2023-02-15T01:21:41;0.80;99.90
5222;DHT22;2630;52.036;8.514;2023-02-15T01:24:12;0.90;99.90
5222;DHT22;2630;52.036;8.514;2023-02-15T01:26:38;0.90;99.90
5222;DHT22;2630;52.036;8.514;2023-02-15T01:31:29;0.80;99.90
5222;DHT22;2630;52.036;8.514;2023-02-15T01:38:47;0.90;99.90
5222;DHT22;2630;52.036;8.514;2023-02-15T01:43:52;0.90;99.90
5222;DHT22;2630;52.036;8.514;2023-02-15T01:46:23;0.90;99.90
5222;DHT22;2630;52.036;8.514;2023-02-15T01:48:56;1.00;99.90
5222;DHT22;2630;52.036;8.514;2023-02-15T01:51:27;1.00;99.90
5222;DHT22;2630;52.036;8.514;2023-02-15T01:54:06;1.00;99.90
5222;DHT22;2630;52.036;8.514;2023-02-15T01:56:35;0.90;99.90
5222;DHT22;2630;52.036;8.514;2023-02-15T01:59:07;0.90;99.90
5222;DHT22;2630;52.036;8.514;2023-02-15T02:06:27;0.80;99.90
5222;DHT22;2630;52.036;8.514;2023-02-15T02:13:46;0.80;99.90
5222;DHT22;2630;52.036;8.514;2023-02-15T02:16:43;0.70;99.90
5222;DHT22;2630;52.036;8.514;2023-02-15T02:36:52;0.60;99.90
5222;DHT22;2630;52.036;8.514;2023-02-15T02:39:37;0.50;99.90
5222;DHT22;2630;52.036;8.514;2023-02-15T02:45:02;0.40;99.90
5222;DHT22;2630;52.036;8.514;2023-02-15T02:47:44;0.40;99.90
5222;DHT22;2630;52.036;8.514;2023-02-15T02:50:27;0.40;99.90
5222;DHT22;2630;52.036;8.514;2023-02-15T02:52:55;0.40;99.90
5222;DHT22;2630;52.036;8.514;2023-02-15T02:55:40;0.30;99.90
5222;DHT22;2630;52.036;8.514;2023-02-15T03:00:36;0.20;99.90
5222;DHT22;2630;52.036;8.514;2023-02-15T03:03:08;0.20;99.90
5222;DHT22;2630;52.036;8.514;2023-02-15T03:05:39;0.20;99.90
5222;DHT22;2630;52.036;8.514;2023-02-15T03:08:07;0.20;99.90
5222;DHT22;2630;52.036;8.514;2023-02-15T03:10:36;0.20;99.90
5222;DHT22;2630;52.036;8.514;2023-02-15T03:13:03;0.20;99.90
5222;DHT22;2630;52.036;8.514;2023-02-15T03:15:38;0.30;99.90
5222;DHT22;2630;52.036;8.514;2023-02-15T03:18:29;0.30;99.90
5222;DHT22;2630;52.036;8.514;2023-02-15T03:20:59;0.30;99.90
5222;DHT22;2630;52.036;8.514;2023-02-15T03:23:28;0.40;99.90
5222;DHT22;2630;52.036;8.514;2023-02-15T03:26:00;0.40;99.90
5222;DHT22;2630;52.036;8.514;2023-02-15T03:28:36;0.40;99.90
5222;DHT22;2630;52.036;8.514;2023-02-15T03:31:07;0.40;99.90
5222;DHT22;2630;52.036;8.514;2023-02-15T03:33:36;0.40;99.90
5222;DHT22;2630;52.036;8.514;2023-02-15T03:38:43;0.40;99.90
5222;DHT22;2630;52.036;8.514;2023-02-15T03:41:11;0.40;99.90
5222;DHT22;2630;52.036;8.514;2023-02-15T03:43:58;0.30;99.90
5222;DHT22;2630;52.036;8.514;2023-02-15T03:46:30;0.40;99.90
5222;DHT22;2630;52.036;8.514;2023-02-15T03:49:04;0.30;99.90
5222;DHT22;2630;52.036;8.514;2023-02-15T03:51:36;0.30;99.90
5222;DHT22;2630;52.036;8.514;2023-02-15T03:56:42;0.30;99.90
5222;DHT22;2630;52.036;8.514;2023-02-15T03:59:27;0.40;99.90
5222;DHT22;2630;52.036;8.514;2023-02-15T04:04:48;0.50;99.90
5222;DHT22;2630;52.036;8.514;2023-02-15T04:09:40;0.50;99.90
5222;DHT22;2630;52.036;8.514;2023-02-15T04:12:24;0.40;99.90
5222;DHT22;2630;52.036;8.514;2023-02-15T04:14:49;0.40;99.90
5222;DHT22;2630;52.036;8.514;2023-02-15T04:19:59;0.40;99.90
5222;DHT22;2630;52.036;8.514;2023-02-15T04:22:43;0.40;99.90
5222;DHT22;2630;52.036;8.514;2023-02-15T04:25:27;0.30;99.90
5222;DHT22;2630;52.036;8.514;2023-02-15T04:30:23;0.40;99.90
5222;DHT22;2630;52.036;8.514;2023-02-15T04:32:49;0.30;99.90
5222;DHT22;2630;52.036;8.514;2023-02-15T04:37:42;0.30;99.90
5222;DHT22;2630;52.036;8.514;2023-02-15T04:40:11;0.30;99.90
5222;DHT22;2630;52.036;8.514;2023-02-15T04:45:03;0.30;99.90
5222;DHT22;2630;52.036;8.514;2023-02-15T04:47:29;0.30;99.90
5222;DHT22;2630;52.036;8.514;2023-02-15T04:52:21;0.30;99.90
5222;DHT22;2630;52.036;8.514;2023-02-15T04:59:39;0.20;99.90
5222;DHT22;2630;52.036;8.514;2023-02-15T05:02:04;0.20;99.90
5222;DHT22;2630;52.036;8.514;2023-02-15T05:16:40;0.10;99.90
5222;DHT22;2630;52.036;8.514;2023-02-15T05:19:05;0.10;99.90
5222;DHT22;2630;52.036;8.514;2023-02-15T05:26:25;0.00;99.90
5222;DHT22;2630;52.036;8.514;2023-02-15T05:29:09;0.10;99.90
5222;DHT22;2630;52.036;8.514;2023-02-15T05:31:35;0.10;99.90
5222;DHT22;2630;52.036;8.514;2023-02-15T05:36:27;0.10;99.90
5222;DHT22;2630;52.036;8.514;2023-02-15T05:43:46;0.00;99.90
5222;DHT22;2630;52.036;8.514;2023-02-15T05:46:12;-0.10;99.90
5222;DHT22;2630;52.036;8.514;2023-02-15T05:48:37;0.00;99.90
5222;DHT22;2630;52.036;8.514;2023-02-15T05:51:09;0.00;99.90
5222;DHT22;2630;52.036;8.514;2023-02-15T05:53:37;0.00;99.90
5222;DHT22;2630;52.036;8.514;2023-02-15T05:56:04;0.00;99.90
5222;DHT22;2630;52.036;8.514;2023-02-15T05:58:33;0.00;99.90
5222;DHT22;2630;52.036;8.514;2023-02-15T06:00:59;0.10;99.90
5222;DHT22;2630;52.036;8.514;2023-02-15T06:10:46;0.00;99.90
5222;DHT22;2630;52.036;8.514;2023-02-15T06:15:37;0.00;99.90
5222;DHT22;2630;52.036;8.514;2023-02-15T06:20:29;0.00;99.90
5222;DHT22;2630;52.036;8.514;2023-02-15T06:27:47;-0.10;99.90
5222;DHT22;2630;52.036;8.514;2023-02-15T06:30:13;-0.10;99.90
5222;DHT22;2630;52.036;8.514;2023-02-15T06:32:38;-0.10;99.90
5222;DHT22;2630;52.036;8.514;2023-02-15T06:44:49;-0.10;99.90
5222;DHT22;2630;52.036;8.514;2023-02-15T06:49:41;0.00;99.90
5222;DHT22;2630;52.036;8.514;2023-02-15T06:52:07;0.00;99.90
5222;DHT22;2630;52.036;8.514;2023-02-15T06:59:24;0.00;99.90
5222;DHT22;2630;52.036;8.514;2023-02-15T07:01:50;0.00;99.90
5222;DHT22;2630;52.036;8.514;2023-02-15T07:16:44;0.20;99.90
5222;DHT22;2630;52.036;8.514;2023-02-15T07:19:10;0.20;99.90
5222;DHT22;2630;52.036;8.514;2023-02-15T07:21:36;0.20;99.90
5222;DHT22;2630;52.036;8.514;2023-02-15T07:24:02;0.30;99.90
5222;DHT22;2630;52.036;8.514;2023-02-15T07:28:54;0.30;99.90
5222;DHT22;2630;52.036;8.514;2023-02-15T07:33:46;0.60;99.90
5222;DHT22;2630;52.036;8.514;2023-02-15T07:38:40;0.80;99.90
5222;DHT22;2630;52.036;8.514;2023-02-15T07:41:08;1.00;99.90
5222;DHT22;2630;52.036;8.514;2023-02-15T07:43:38;1.40;99.90
5222;DHT22;2630;52.036;8.514;2023-02-15T07:46:06;2.00;99.90
5222;DHT22;2630;52.036;8.514;2023-02-15T07:51:03;2.60;99.90
5222;DHT22;2630;52.036;8.514;2023-02-15T07:53:31;2.80;99.90
5222;DHT22;2630;52.036;8.514;2023-02-15T07:56:01;3.10;99.90
5222;DHT22;2630;52.036;8.514;2023-02-15T07:58:27;3.40;99.90
5222;DHT22;2630;52.036;8.514;2023-02-15T08:01:13;3.50;99.90
5222;DHT22;2630;52.036;8.514;2023-02-15T08:03:39;3.60;99.90
5222;DHT22;2630;52.036;8.514;2023-02-15T08:06:05;3.70;99.90
5222;DHT22;2630;52.036;8.514;2023-02-15T08:08:33;3.90;99.90
5222;DHT22;2630;52.036;8.514;2023-02-15T08:14:14;5.00;99.90
5222;DHT22;2630;52.036;8.514;2023-02-15T08:16:44;5.60;99.90
5222;DHT22;2630;52.036;8.514;2023-02-15T08:19:14;6.00;99.90
5222;DHT22;2630;52.036;8.514;2023-02-15T08:21:45;6.20;99.90
5222;DHT22;2630;52.036;8.514;2023-02-15T08:24:13;6.60;99.90
5222;DHT22;2630;52.036;8.514;2023-02-15T08:26:39;6.80;99.90
5222;DHT22;2630;52.036;8.514;2023-02-15T08:29:06;7.20;99.90
5222;DHT22;2630;52.036;8.514;2023-02-15T08:31:33;7.40;99.90
5222;DHT22;2630;52.036;8.514;2023-02-15T08:33:59;7.50;99.90
5222;DHT22;2630;52.036;8.514;2023-02-15T08:36:27;7.30;99.90
5222;DHT22;2630;52.036;8.514;2023-02-15T08:38:54;7.30;99.90
5222;DHT22;2630;52.036;8.514;2023-02-15T08:41:27;7.10;99.90
5222;DHT22;2630;52.036;8.514;2023-02-15T08:43:56;6.40;99.90
5222;DHT22;2630;52.036;8.514;2023-02-15T08:46:24;6.20;99.90
5222;DHT22;2630;52.036;8.514;2023-02-15T08:48:50;5.90;99.90
5222;DHT22;2630;52.036;8.514;2023-02-15T08:51:18;5.60;99.90
5222;DHT22;2630;52.036;8.514;2023-02-15T08:53:47;5.40;99.90
5222;DHT22;2630;52.036;8.514;2023-02-15T08:56:17;5.30;99.90
5222;DHT22;2630;52.036;8.514;2023-02-15T08:58:43;5.10;99.90
5222;DHT22;2630;52.036;8.514;2023-02-15T09:01:10;5.00;99.90
5222;DHT22;2630;52.036;8.514;2023-02-15T09:03:36;4.90;99.90
5222;DHT22;2630;52.036;8.514;2023-02-15T09:06:02;4.90;99.90
5222;DHT22;2630;52.036;8.514;2023-02-15T09:10:54;4.90;99.90
5222;DHT22;2630;52.036;8.514;2023-02-15T09:13:29;4.90;99.90
5222;DHT22;2630;52.036;8.514;2023-02-15T09:16:03;4.90;99.90
5222;DHT22;2630;52.036;8.514;2023-02-15T09:18:30;5.00;99.90
5222;DHT22;2630;52.036;8.514;2023-02-15T09:20:56;5.00;99.90
5222;DHT22;2630;52.036;8.514;2023-02-15T09:23:22;5.10;99.90
5222;DHT22;2630;52.036;8.514;2023-02-15T09:25:47;5.10;99.90
5222;DHT22;2630;52.036;8.514;2023-02-15T09:45:47;5.50;99.90
5222;DHT22;2630;52.036;8.514;2023-02-15T09:48:32;5.40;99.90
5222;DHT22;2630;52.036;8.514;2023-02-15T09:51:42;5.40;99.90
5222;DHT22;2630;52.036;8.514;2023-02-15T09:57:35;5.50;99.90
5222;DHT22;2630;52.036;8.514;2023-02-15T10:00:15;5.60;99.90
5222;DHT22;2630;52.036;8.514;2023-02-15T10:03:04;5.70;99.90
5222;DHT22;2630;52.036;8.514;2023-02-15T10:05:42;5.80;99.90
5222;DHT22;2630;52.036;8.514;2023-02-15T10:08:35;6.00;99.90
5222;DHT22;2630;52.036;8.514;2023-02-15T10:14:15;6.30;99.90
5222;DHT22;2630;52.036;8.514;2023-02-15T10:17:08;6.50;99.90
5222;DHT22;2630;52.036;8.514;2023-02-15T10:27:48;7.40;99.90
5222;DHT22;2630;52.036;8.514;2023-02-15T10:35:43;8.20;99.90
5222;DHT22;2630;52.036;8.514;2023-02-15T10:38:30;8.60;99.90
5222;DHT22;2630;52.036;8.514;2023-02-15T10:53:29;9.80;99.90
5222;DHT22;2630;52.036;8.514;2023-02-15T11:01:23;10.70;99.90
5222;DHT22;2630;52.036;8.514;2023-02-15T11:06:54;11.50;99.90
5222;DHT22;2630;52.036;8.514;2023-02-15T11:09:25;11.80;99.90
5222;DHT22;2630;52.036;8.514;2023-02-15T11:11:54;11.70;99.90
5222;DHT22;2630;52.036;8.514;2023-02-15T11:14:43;11.90;99.90
5222;DHT22;2630;52.036;8.514;2023-02-15T11:17:13;12.20;99.90
5222;DHT22;2630;52.036;8.514;2023-02-15T11:19:56;12.30;99.90
5222;DHT22;2630;52.036;8.514;2023-02-15T11:27:21;12.20;99.90
5222;DHT22;2630;52.036;8.514;2023-02-15T11:29:58;12.20;99.90
5222;DHT22;2630;52.036;8.514;2023-02-15T11:32:30;12.20;99.90
5222;DHT22;2630;52.036;8.514;2023-02-15T11:37:40;12.20;99.90
5222;DHT22;2630;52.036;8.514;2023-02-15T11:40:34;12.30;99.90
5222;DHT22;2630;52.036;8.514;2023-02-15T11:43:06;12.10;99.90
5222;DHT22;2630;52.036;8.514;2023-02-15T11:45:34;12.10;99.90
5222;DHT22;2630;52.036;8.514;2023-02-15T11:50:30;12.00;99.90
5222;DHT22;2630;52.036;8.514;2023-02-15T11:53:02;12.00;99.90
5222;DHT22;2630;52.036;8.514;2023-02-15T11:55:29;12.10;99.90
5222;DHT22;2630;52.036;8.514;2023-02-15T11:58:01;12.10;99.90
5222;DHT22;2630;52.036;8.514;2023-02-15T12:00:38;12.30;99.90
5222;DHT22;2630;52.036;8.514;2023-02-15T12:03:22;12.30;99.90
5222;DHT22;2630;52.036;8.514;2023-02-15T12:05:57;12.10;99.90
5222;DHT22;2630;52.036;8.514;2023-02-15T12:13:18;12.00;99.90
5222;DHT22;2630;52.036;8.514;2023-02-15T12:15:53;12.00;99.90
5222;DHT22;2630;52.036;8.514;2023-02-15T12:18:39;11.80;99.90
5222;DHT22;2630;52.036;8.514;2023-02-15T12:21:14;11.70;99.90
5222;DHT22;2630;52.036;8.514;2023-02-15T12:23:48;11.60;99.90
5222;DHT22;2630;52.036;8.514;2023-02-15T12:26:31;11.60;99.90
5222;DHT22;2630;52.036;8.514;2023-02-15T12:28:59;11.70;99.90
5222;DHT22;2630;52.036;8.514;2023-02-15T12:31:39;11.90;99.90
5222;DHT22;2630;52.036;8.514;2023-02-15T12:34:24;11.80;99.90
5222;DHT22;2630;52.036;8.514;2023-02-15T12:36:56;12.00;99.90
5222;DHT22;2630;52.036;8.514;2023-02-15T12:39:32;12.00;99.90
5222;DHT22;2630;52.036;8.514;2023-02-15T12:42:01;12.00;99.90
5222;DHT22;2630;52.036;8.514;2023-02-15T12:44:29;12.00;99.90
5222;DHT22;2630;52.036;8.514;2023-02-15T12:47:10;12.10;99.90
5222;DHT22;2630;52.036;8.514;2023-02-15T12:49:43;12.20;99.90
5222;DHT22;2630;52.036;8.514;2023-02-15T12:57:32;12.60;99.90
5222;DHT22;2630;52.036;8.514;2023-02-15T13:02:29;13.00;99.90
5222;DHT22;2630;52.036;8.514;2023-02-15T13:04:57;13.10;99.90
5222;DHT22;2630;52.036;8.514;2023-02-15T13:07:30;13.00;99.90
5222;DHT22;2630;52.036;8.514;2023-02-15T13:12:27;12.60;99.90
5222;DHT22;2630;52.036;8.514;2023-02-15T13:14:56;12.70;99.90
5222;DHT22;2630;52.036;8.514;2023-02-15T13:17:31;12.80;99.90
5222;DHT22;2630;52.036;8.514;2023-02-15T13:20:05;12.90;99.90
5222;DHT22;2630;52.036;8.514;2023-02-15T13:22:39;12.90;99.90
5222;DHT22;2630;52.036;8.514;2023-02-15T13:27:41;12.70;99.90
5222;DHT22;2630;52.036;8.514;2023-02-15T13:30:24;12.80;99.90
5222;DHT22;2630;52.036;8.514;2023-02-15T13:32:55;12.90;99.90
5222;DHT22;2630;52.036;8.514;2023-02-15T13:35:24;12.80;99.90
5222;DHT22;2630;52.036;8.514;2023-02-15T13:38:21;12.90;99.90
5222;DHT22;2630;52.036;8.514;2023-02-15T13:41:04;12.90;99.90
5222;DHT22;2630;52.036;8.514;2023-02-15T13:43:50;12.90;99.90
5222;DHT22;2630;52.036;8.514;2023-02-15T13:49:17;12.80;99.90
5222;DHT22;2630;52.036;8.514;2023-02-15T13:52:18;13.20;99.90
5222;DHT22;2630;52.036;8.514;2023-02-15T13:57:44;12.70;99.90
5222;DHT22;2630;52.036;8.514;2023-02-15T14:03:42;12.70;99.90
5222;DHT22;2630;52.036;8.514;2023-02-15T14:06:34;12.60;99.90
5222;DHT22;2630;52.036;8.514;2023-02-15T14:20:05;12.60;99.90
5222;DHT22;2630;52.036;8.514;2023-02-15T14:22:40;12.60;99.90
5222;DHT22;2630;52.036;8.514;2023-02-15T14:25:30;12.60;99.90
5222;DHT22;2630;52.036;8.514;2023-02-15T14:28:19;12.60;99.90
5222;DHT22;2630;52.036;8.514;2023-02-15T14:30:49;12.70;99.90
5222;DHT22;2630;52.036;8.514;2023-02-15T14:35:43;12.70;99.90
5222;DHT22;2630;52.036;8.514;2023-02-15T14:38:32;12.80;99.90
5222;DHT22;2630;52.036;8.514;2023-02-15T14:59:43;13.40;99.90
5222;DHT22;2630;52.036;8.514;2023-02-15T15:02:17;13.40;99.90
5222;DHT22;2630;52.036;8.514;2023-02-15T15:05:02;13.60;99.90
5222;DHT22;2630;52.036;8.514;2023-02-15T15:12:51;13.20;99.90
5222;DHT22;2630;52.036;8.514;2023-02-15T15:18:04;12.70;99.90
5222;DHT22;2630;52.036;8.514;2023-02-15T15:20:43;12.50;99.90
5222;DHT22;2630;52.036;8.514;2023-02-15T15:33:19;12.00;99.90
5222;DHT22;2630;52.036;8.514;2023-02-15T15:38:51;11.80;99.90
5222;DHT22;2630;52.036;8.514;2023-02-15T15:49:37;11.50;99.90
5222;DHT22;2630;52.036;8.514;2023-02-15T15:52:16;11.30;99.90
5222;DHT22;2630;52.036;8.514;2023-02-15T15:59:54;11.00;99.90
5222;DHT22;2630;52.036;8.514;2023-02-15T16:12:14;10.60;99.90
5222;DHT22;2630;52.036;8.514;2023-02-15T16:17:36;10.30;99.90
5222;DHT22;2630;52.036;8.514;2023-02-15T16:20:16;10.10;99.90
5222;DHT22;2630;52.036;8.514;2023-02-15T16:22:48;9.90;99.90
5222;DHT22;2630;52.036;8.514;2023-02-15T16:30:34;9.40;99.90
5222;DHT22;2630;52.036;8.514;2023-02-15T16:33:09;9.10;99.90
5222;DHT22;2630;52.036;8.514;2023-02-15T16:35:37;8.90;99.90
5222;DHT22;2630;52.036;8.514;2023-02-15T16:40:47;8.50;99.90
5222;DHT22;2630;52.036;8.514;2023-02-15T16:43:19;8.30;99.90
5222;DHT22;2630;52.036;8.514;2023-02-15T16:50:47;7.70;99.90
5222;DHT22;2630;52.036;8.514;2023-02-15T16:58:14;7.40;99.90
5222;DHT22;2630;52.036;8.514;2023-02-15T17:05:50;7.20;99.90
5222;DHT22;2630;52.036;8.514;2023-02-15T17:11:18;7.10;99.90
5222;DHT22;2630;52.036;8.514;2023-02-15T17:19:23;6.90;99.90
5222;DHT22;2630;52.036;8.514;2023-02-15T17:21:50;6.70;99.90
5222;DHT22;2630;52.036;8.514;2023-02-15T17:24:25;6.70;99.90
5222;DHT22;2630;52.036;8.514;2023-02-15T17:26:55;6.60;99.90
5222;DHT22;2630;52.036;8.514;2023-02-15T17:29:32;6.60;99.90
5222;DHT22;2630;52.036;8.514;2023-02-15T17:32:00;6.40;99.90
5222;DHT22;2630;52.036;8.514;2023-02-15T17:34:47;6.30;99.90
5222;DHT22;2630;52.036;8.514;2023-02-15T17:37:24;6.20;99.90
5222;DHT22;2630;52.036;8.514;2023-02-15T17:47:20;5.90;99.90
5222;DHT22;2630;52.036;8.514;2023-02-15T17:49:46;5.80;99.90
5222;DHT22;2630;52.036;8.514;2023-02-15T17:52:14;5.80;99.90
5222;DHT22;2630;52.036;8.514;2023-02-15T17:54:41;5.70;99.90
5222;DHT22;2630;52.036;8.514;2023-02-15T17:57:26;5.60;99.90
5222;DHT22;2630;52.036;8.514;2023-02-15T18:08:15;5.40;99.90
5222;DHT22;2630;52.036;8.514;2023-02-15T18:11:00;5.30;99.90
5222;DHT22;2630;52.036;8.514;2023-02-15T18:16:16;5.30;99.90
5222;DHT22;2630;52.036;8.514;2023-02-15T18:18:43;5.20;99.90
5222;DHT22;2630;52.036;8.514;2023-02-15T18:38:26;4.80;99.90
5222;DHT22;2630;52.036;8.514;2023-02-15T18:48:10;4.60;99.90
5222;DHT22;2630;52.036;8.514;2023-02-15T18:50:36;4.50;99.90
5222;DHT22;2630;52.036;8.514;2023-02-15T18:53:05;4.50;99.90
5222;DHT22;2630;52.036;8.514;2023-02-15T19:00:31;4.50;99.90
5222;DHT22;2630;52.036;8.514;2023-02-15T19:05:24;4.30;99.90
5222;DHT22;2630;52.036;8.514;2023-02-15T19:07:52;4.30;99.90
5222;DHT22;2630;52.036;8.514;2023-02-15T19:10:20;4.40;99.90
5222;DHT22;2630;52.036;8.514;2023-02-15T19:12:47;4.20;99.90
5222;DHT22;2630;52.036;8.514;2023-02-15T19:15:24;4.50;99.90
5222;DHT22;2630;52.036;8.514;2023-02-15T19:20:23;4.50;99.90
5222;DHT22;2630;52.036;8.514;2023-02-15T19:22:51;4.50;99.90
5222;DHT22;2630;52.036;8.514;2023-02-15T19:25:26;4.60;99.90
5222;DHT22;2630;52.036;8.514;2023-02-15T19:27:52;4.50;99.90
5222;DHT22;2630;52.036;8.514;2023-02-15T19:35:20;4.60;99.90
5222;DHT22;2630;52.036;8.514;2023-02-15T19:37:52;4.60;99.90
5222;DHT22;2630;52.036;8.514;2023-02-15T19:40:24;4.60;99.90
5222;DHT22;2630;52.036;8.514;2023-02-15T19:45:21;4.50;99.90
5222;DHT22;2630;52.036;8.514;2023-02-15T19:50:19;4.50;99.90
5222;DHT22;2630;52.036;8.514;2023-02-15T19:52:45;4.40;99.90
5222;DHT22;2630;52.036;8.514;2023-02-15T19:57:54;4.30;99.90
5222;DHT22;2630;52.036;8.514;2023-02-15T20:00:32;4.30;99.90
5222;DHT22;2630;52.036;8.514;2023-02-15T20:05:28;4.30;99.90
5222;DHT22;2630;52.036;8.514;2023-02-15T20:07:55;4.30;99.90
5222;DHT22;2630;52.036;8.514;2023-02-15T20:10:21;4.30;99.90
5222;DHT22;2630;52.036;8.514;2023-02-15T20:15:28;4.20;99.90
5222;DHT22;2630;52.036;8.514;2023-02-15T20:17:55;3.90;99.90
5222;DHT22;2630;52.036;8.514;2023-02-15T20:20:23;4.10;99.90
5222;DHT22;2630;52.036;8.514;2023-02-15T20:25:26;4.10;99.90
5222;DHT22;2630;52.036;8.514;2023-02-15T20:30:24;4.00;99.90
5222;DHT22;2630;52.036;8.514;2023-02-15T20:32:50;3.90;99.90
5222;DHT22;2630;52.036;8.514;2023-02-15T20:35:18;3.80;99.90
5222;DHT22;2630;52.036;8.514;2023-02-15T20:37:46;3.80;99.90
5222;DHT22;2630;52.036;8.514;2023-02-15T20:40:21;3.80;99.90
5222;DHT22;2630;52.036;8.514;2023-02-15T20:45:15;3.70;99.90
5222;DHT22;2630;52.036;8.514;2023-02-15T20:47:41;3.70;99.90
5222;DHT22;2630;52.036;8.514;2023-02-15T20:50:11;3.60;99.90
5222;DHT22;2630;52.036;8.514;2023-02-15T20:52:37;3.60;99.90
5222;DHT22;2630;52.036;8.514;2023-02-15T20:55:13;3.70;99.90
5222;DHT22;2630;52.036;8.514;2023-02-15T20:57:39;3.80;99.90
5222;DHT22;2630;52.036;8.514;2023-02-15T21:00:08;3.90;99.90
5222;DHT22;2630;52.036;8.514;2023-02-15T21:07:59;5.00;99.90
5222;DHT22;2630;52.036;8.514;2023-02-15T21:10:29;5.40;99.90
5222;DHT22;2630;52.036;8.514;2023-02-15T21:17:52;6.10;99.90
5222;DHT22;2630;52.036;8.514;2023-02-15T21:20:18;6.20;99.90
5222;DHT22;2630;52.036;8.514;2023-02-15T21:25:14;6.30;99.90
5222;DHT22;2630;52.036;8.514;2023-02-15T21:27:41;6.40;99.90
5222;DHT22;2630;52.036;8.514;2023-02-15T21:30:18;6.40;99.90
5222;DHT22;2630;52.036;8.514;2023-02-15T21:32:44;6.30;99.90
5222;DHT22;2630;52.036;8.514;2023-02-15T21:35:10;6.30;99.90
5222;DHT22;2630;52.036;8.514;2023-02-15T21:37:38;6.20;99.90
5222;DHT22;2630;52.036;8.514;2023-02-15T21:42:41;6.00;99.90
5222;DHT22;2630;52.036;8.514;2023-02-15T21:45:25;5.80;99.90
5222;DHT22;2630;52.036;8.514;2023-02-15T21:48:09;5.60;99.90
5222;DHT22;2630;52.036;8.514;2023-02-15T21:50:35;5.40;99.90
5222;DHT22;2630;52.036;8.514;2023-02-15T21:55:58;5.10;99.90
5222;DHT22;2630;52.036;8.514;2023-02-15T21:58:27;4.90;99.90
5222;DHT22;2630;52.036;8.514;2023-02-15T22:00:54;4.80;99.90
5222;DHT22;2630;52.036;8.514;2023-02-15T22:03:22;4.80;99.90
5222;DHT22;2630;52.036;8.514;2023-02-15T22:05:48;4.90;99.90
5222;DHT22;2630;52.036;8.514;2023-02-15T22:08:14;5.20;99.90
5222;DHT22;2630;52.036;8.514;2023-02-15T22:10:40;5.40;99.90
5222;DHT22;2630;52.036;8.514;2023-02-15T22:13:35;5.70;99.90
5222;DHT22;2630;52.036;8.514;2023-02-15T22:16:01;5.80;99.90
5222;DHT22;2630;52.036;8.514;2023-02-15T22:18:29;5.80;99.90
5222;DHT22;2630;52.036;8.514;2023-02-15T22:20:56;5.90;99.90
5222;DHT22;2630;52.036;8.514;2023-02-15T22:23:22;5.80;99.90
5222;DHT22;2630;52.036;8.514;2023-02-15T22:25:53;5.90;99.90
5222;DHT22;2630;52.036;8.514;2023-02-15T22:28:32;5.80;99.90
5222;DHT22;2630;52.036;8.514;2023-02-15T22:30:58;5.70;99.90
5222;DHT22;2630;52.036;8.514;2023-02-15T22:33:29;5.70;99.90
5222;DHT22;2630;52.036;8.514;2023-02-15T22:35:56;5.80;99.90
5222;DHT22;2630;52.036;8.514;2023-02-15T22:38:22;5.80;99.90
5222;DHT22;2630;52.036;8.514;2023-02-15T22:40:49;5.80;99.90
5222;DHT22;2630;52.036;8.514;2023-02-15T22:43:37;5.70;99.90
5222;DHT22;2630;52.036;8.514;2023-02-15T22:46:23;5.60;99.90
5222;DHT22;2630;52.036;8.514;2023-02-15T22:48:49;5.60;99.90
5222;DHT22;2630;52.036;8.514;2023-02-15T22:53:43;5.50;99.90
5222;DHT22;2630;52.036;8.514;2023-02-15T22:56:20;5.40;99.90
5222;DHT22;2630;52.036;8.514;2023-02-15T22:58:47;5.20;99.90
5222;DHT22;2630;52.036;8.514;2023-02-15T23:01:38;5.10;99.90
5222;DHT22;2630;52.036;8.514;2023-02-15T23:04:05;5.00;99.90
5222;DHT22;2630;52.036;8.514;2023-02-15T23:06:32;4.90;99.90
5222;DHT22;2630;52.036;8.514;2023-02-15T23:08:59;4.70;99.90
5222;DHT22;2630;52.036;8.514;2023-02-15T23:11:25;4.60;99.90
5222;DHT22;2630;52.036;8.514;2023-02-15T23:13:51;4.60;99.90
5222;DHT22;2630;52.036;8.514;2023-02-15T23:16:17;4.40;99.90
5222;DHT22;2630;52.036;8.514;2023-02-15T23:18:45;4.40;99.90
5222;DHT22;2630;52.036;8.514;2023-02-15T23:21:27;4.30;99.90
5222;DHT22;2630;52.036;8.514;2023-02-15T23:24:19;4.30;99.90
5222;DHT22;2630;52.036;8.514;2023-02-15T23:26:45;4.30;99.90
5222;DHT22;2630;52.036;8.514;2023-02-15T23:31:51;4.60;99.90
5222;DHT22;2630;52.036;8.514;2023-02-15T23:34:27;4.70;99.90
5222;DHT22;2630;52.036;8.514;2023-02-15T23:36:54;4.80;99.90
5222;DHT22;2630;52.036;8.514;2023-02-15T23:39:25;5.00;99.90
5222;DHT22;2630;52.036;8.514;2023-02-15T23:42:13;5.20;99.90
5222;DHT22;2630;52.036;8.514;2023-02-15T23:44:40;5.40;99.90
5222;DHT22;2630;52.036;8.514;2023-02-15T23:49:46;5.80;99.90
5222;DHT22;2630;52.036;8.514;2023-02-15T23:52:12;6.00;99.90
5222;DHT22;2630;52.036;8.514;2023-02-15T23:57:04;6.20;99.90
5222;DHT22;2630;52.036;8.514;2023-02-15T23:59:31;6.40;99.90
